Time;durP1;ratioP1;P1;durP2;ratioP2;P2;SDS_P1;SDS_P2;PMS_P1;PMS_P2;Temp;Humidity;BMP_temperature;BMP_pressure;BME280_temperature;BME280_humidity;BME280_pressure;Samples;Min_cycle;Max_cycle;Signal;HPM_P1;HPM_P2
2024/02/01 00:00:06;;;;;;;12.7;7.4;;;;;;;2.64;81.74902;949.3228;;;;
2024/02/01 00:02:32;;;;;;;14.8;7.2;;;;;;;2.61;81.88867;949.3484;;;;
2024/02/01 00:04:57;;;;;;;16;8.1;;;;;;;2.64;82.0625;949.2427;;;;
2024/02/01 00:07:22;;;;;;;8.9;5.3;;;;;;;2.63;81.88086;949.1311;;;;
2024/02/01 00:09:48;;;;;;;9.8;5.6;;;;;;;2.63;82.0498;949.1389;;;;
2024/02/01 00:12:12;;;;;;;11;5.9;;;;;;;2.62;81.98047;949.1519;;;;
2024/02/01 00:14:37;;;;;;;9.9;5.4;;;;;;;2.54;82.00977;949.1189;;;;
2024/02/01 00:17:02;;;;;;;9.8;5;;;;;;;2.48;82.37988;949.0642;;;;
2024/02/01 00:19:28;;;;;;;8.8;4.5;;;;;;;2.55;82.26758;948.972;;;;
2024/02/01 00:21:53;;;;;;;7.7;4.2;;;;;;;2.56;82.0918;948.9752;;;;
2024/02/01 00:24:18;;;;;;;6.9;3.9;;;;;;;2.44;81.74219;948.9739;;;;
2024/02/01 00:26:43;;;;;;;6.1;4;;;;;;;2.48;82.37793;948.9948;;;;
2024/02/01 00:29:08;;;;;;;7.8;5.3;;;;;;;2.46;82.92383;949.0137;;;;
2024/02/01 00:31:34;;;;;;;8.5;4.9;;;;;;;2.47;82.81348;949.0306;;;;
2024/02/01 00:33:59;;;;;;;10.5;5.2;;;;;;;2.41;82.79004;948.9634;;;;
2024/02/01 00:36:24;;;;;;;9.3;5.3;;;;;;;2.56;82.41699;948.9902;;;;
2024/02/01 00:38:49;;;;;;;10.1;5.3;;;;;;;2.7;81.91797;948.867;;;;
2024/02/01 00:41:14;;;;;;;8.1;4.9;;;;;;;2.63;81.98242;948.815;;;;
2024/02/01 00:43:40;;;;;;;8.9;5.1;;;;;;;2.46;82.52051;948.6647;;;;
2024/02/01 00:46:05;;;;;;;7.6;5;;;;;;;2.42;82.78027;948.637;;;;
2024/02/01 00:48:30;;;;;;;10.4;4.9;;;;;;;2.33;83.15723;948.5604;;;;
2024/02/01 00:50:54;;;;;;;9.6;4.9;;;;;;;2.34;83.40527;948.505;;;;
2024/02/01 00:53:22;;;;;;;7.8;5;;;;;;;2.41;83.17285;948.4238;;;;
2024/02/01 00:55:45;;;;;;;12.8;6.8;;;;;;;2.5;82.92188;948.4082;;;;
2024/02/01 00:58:10;;;;;;;9.6;5.2;;;;;;;2.48;82.91602;948.3936;;;;
2024/02/01 01:00:35;;;;;;;8.3;4.7;;;;;;;2.34;83.31348;948.4246;;;;
2024/02/01 01:03:00;;;;;;;8.8;4.6;;;;;;;2.42;83.06055;948.4043;;;;
2024/02/01 01:05:25;;;;;;;7.4;4.3;;;;;;;2.46;82.82324;948.3817;;;;
2024/02/01 01:07:50;;;;;;;5.6;3.9;;;;;;;2.55;82.43945;948.3569;;;;
2024/02/01 01:10:16;;;;;;;7.6;3.9;;;;;;;2.4;82.94727;948.3572;;;;
2024/02/01 01:12:41;;;;;;;6.7;3.9;;;;;;;2.33;83.43457;948.3328;;;;
2024/02/01 01:15:06;;;;;;;5.5;3.4;;;;;;;2.32;83.46875;948.2518;;;;
2024/02/01 01:17:31;;;;;;;6.7;3.7;;;;;;;2.2;83.55566;948.2003;;;;
2024/02/01 01:20:02;;;;;;;6.7;3.7;;;;;;;2.14;84.28418;948.177;;;;
2024/02/01 01:22:22;;;;;;;7.1;4.3;;;;;;;2.14;84.39453;948.1516;;;;
2024/02/01 01:24:46;;;;;;;6.8;3.8;;;;;;;2.17;84.5918;948.1071;;;;
2024/02/01 01:27:11;;;;;;;5.7;3.8;;;;;;;2.41;83.66406;948.0469;;;;
2024/02/01 01:29:37;;;;;;;6.4;3.8;;;;;;;;;;;;;
2024/02/01 01:32:02;;;;;;;6.4;4;;;;;;;;;;;;;
2024/02/01 01:34:27;;;;;;;7.6;3.7;;;;;;;;;;;;;
2024/02/01 01:36:52;;;;;;;6.9;3.9;;;;;;;;;;;;;
2024/02/01 01:39:17;;;;;;;7;3.6;;;;;;;;;;;;;
2024/02/01 01:41:42;;;;;;;4.9;3.2;;;;;;;;;;;;;
2024/02/01 01:44:08;;;;;;;4.6;3.3;;;;;;;;;;;;;
2024/02/01 01:46:33;;;;;;;5.2;3.2;;;;;;;;;;;;;
2024/02/01 01:48:58;;;;;;;5.2;3;;;;;;;;;;;;;
2024/02/01 01:51:23;;;;;;;4.3;3.3;;;;;;;;;;;;;
2024/02/01 01:53:48;;;;;;;5.6;3.3;;;;;;;;;;;;;
2024/02/01 01:56:13;;;;;;;5.1;3.3;;;;;;;;;;;;;
2024/02/01 01:58:38;;;;;;;4.1;3;;;;;;;;;;;;;
2024/02/01 02:01:03;;;;;;;5.7;3.3;;;;;;;;;;;;;
2024/02/01 02:03:28;;;;;;;4.7;3.1;;;;;;;;;;;;;
2024/02/01 02:05:54;;;;;;;4.3;3.3;;;;;;;;;;;;;
2024/02/01 02:08:19;;;;;;;6.3;3.3;;;;;;;;;;;;;
2024/02/01 02:10:44;;;;;;;6.2;3.1;;;;;;;;;;;;;
2024/02/01 02:13:09;;;;;;;6.3;3.3;;;;;;;;;;;;;
2024/02/01 02:15:35;;;;;;;7.2;4.2;;;;;;;;;;;;;
2024/02/01 02:17:59;;;;;;;9.5;5;;;;;;;;;;;;;
2024/02/01 02:20:24;;;;;;;8.4;5;;;;;;;;;;;;;
2024/02/01 02:22:51;;;;;;;14.7;6.6;;;;;;;;;;;;;
2024/02/01 02:25:15;;;;;;;11.6;7;;;;;;;;;;;;;
2024/02/01 02:27:39;;;;;;;9.7;4.9;;;;;;;;;;;;;
2024/02/01 02:30:06;;;;;;;7.5;3.8;;;;;;;;;;;;;
2024/02/01 02:32:30;;;;;;;7.4;3.6;;;;;;;;;;;;;
2024/02/01 02:34:55;;;;;;;8.3;4;;;;;;;;;;;;;
2024/02/01 02:37:20;;;;;;;6;3.5;;;;;;;;;;;;;
2024/02/01 02:39:45;;;;;;;7;4.1;;;;;;;;;;;;;
2024/02/01 02:42:10;;;;;;;8;4.7;;;;;;;;;;;;;
2024/02/01 02:44:35;;;;;;;9.4;5.4;;;;;;;;;;;;;
2024/02/01 02:47:01;;;;;;;11.6;5.4;;;;;;;;;;;;;
2024/02/01 02:49:26;;;;;;;8;4.1;;;;;;;;;;;;;
2024/02/01 02:51:52;;;;;;;5.9;2.5;;;;;;;;;;;;;
2024/02/01 02:54:17;;;;;;;7.9;2.7;;;;;;;;;;;;;
2024/02/01 02:56:41;;;;;;;4.1;2.4;;;;;;;;;;;;;
2024/02/01 02:59:06;;;;;;;5.1;2.5;;;;;;;;;;;;;
2024/02/01 03:01:32;;;;;;;3.3;2.3;;;;;;;;;;;;;
2024/02/01 03:03:57;;;;;;;3.2;2.1;;;;;;;;;;;;;
2024/02/01 03:06:22;;;;;;;5.8;2.4;;;;;;;;;;;;;
2024/02/01 03:08:47;;;;;;;4.7;2.5;;;;;;;;;;;;;
2024/02/01 03:11:12;;;;;;;4.8;2.8;;;;;;;;;;;;;
2024/02/01 03:13:38;;;;;;;6.4;3.1;;;;;;;;;;;;;
2024/02/01 03:16:04;;;;;;;6.4;3.3;;;;;;;;;;;;;
2024/02/01 03:18:27;;;;;;;4.3;2.9;;;;;;;;;;;;;
2024/02/01 03:20:55;;;;;;;4.7;2.4;;;;;;;;;;;;;
2024/02/01 03:23:18;;;;;;;6.2;2.9;;;;;;;;;;;;;
2024/02/01 03:25:43;;;;;;;5;2.7;;;;;;;;;;;;;
2024/02/01 03:28:09;;;;;;;5.8;2.8;;;;;;;;;;;;;
2024/02/01 03:30:33;;;;;;;5;2.7;;;;;;;;;;;;;
2024/02/01 03:33:01;;;;;;;4.6;2.8;;;;;;;;;;;;;
2024/02/01 03:35:23;;;;;;;4.8;2.4;;;;;;;;;;;;;
2024/02/01 03:37:49;;;;;;;6.2;2.9;;;;;;;;;;;;;
2024/02/01 03:40:14;;;;;;;9.7;3.3;;;;;;;;;;;;;
2024/02/01 03:42:38;;;;;;;5.6;3.4;;;;;;;;;;;;;
2024/02/01 03:45:05;;;;;;;4.6;3;;;;;;;;;;;;;
2024/02/01 03:47:29;;;;;;;4.4;3.1;;;;;;;;;;;;;
2024/02/01 03:49:54;;;;;;;5.5;3;;;;;;;;;;;;;
2024/02/01 03:52:20;;;;;;;6.3;3.2;;;;;;;;;;;;;
2024/02/01 03:54:44;;;;;;;6.1;3;;;;;;;;;;;;;
2024/02/01 03:57:09;;;;;;;5.4;3.1;;;;;;;;;;;;;
2024/02/01 03:59:34;;;;;;;4.9;3.4;;;;;;;;;;;;;
2024/02/01 04:02:31;;;;;;;5.5;3.3;;;;;;;2.15;84.16309;948.9434;;;;
2024/02/01 04:04:56;;;;;;;5.8;2.9;;;;;;;2.11;84.35547;948.9203;;;;
2024/02/01 04:07:22;;;;;;;6;3.2;;;;;;;2.06;84.7041;948.9539;;;;
2024/02/01 04:09:46;;;;;;;9.6;4;;;;;;;2.03;85.06641;948.9543;;;;
2024/02/01 04:12:11;;;;;;;10.2;4.1;;;;;;;2.04;84.90234;948.9102;;;;
2024/02/01 04:14:37;;;;;;;6.4;3.5;;;;;;;2.12;84.92969;948.9983;;;;
2024/02/01 04:17:01;;;;;;;5.5;3.2;;;;;;;2.16;84.9375;948.9236;;;;
2024/02/01 04:19:27;;;;;;;9;3.4;;;;;;;2.27;84.09668;949.0093;;;;
2024/02/01 04:21:52;;;;;;;6;3;;;;;;;2.32;83.60352;949.1342;;;;
2024/02/01 04:24:17;;;;;;;6.5;3.3;;;;;;;2.19;83.94434;949.1992;;;;
2024/02/01 04:26:42;;;;;;;7.5;3.5;;;;;;;2.18;84;949.2173;;;;
2024/02/01 04:29:09;;;;;;;11.2;3.4;;;;;;;2.16;84.0957;949.257;;;;
2024/02/01 04:31:32;;;;;;;7.2;3.2;;;;;;;2.04;84.57617;949.2775;;;;
2024/02/01 04:33:58;;;;;;;5.6;3.3;;;;;;;2.12;84.48242;949.3848;;;;
2024/02/01 04:36:22;;;;;;;7.2;3.5;;;;;;;2.08;84.6748;949.3839;;;;
2024/02/01 04:38:49;;;;;;;5.3;3.2;;;;;;;2.13;84.57129;949.353;;;;
2024/02/01 04:41:12;;;;;;;4.1;2.9;;;;;;;2.11;84.69141;949.4706;;;;
2024/02/01 04:43:37;;;;;;;7;3.5;;;;;;;2.12;84.78223;949.54;;;;
2024/02/01 04:46:03;;;;;;;5.3;3.3;;;;;;;2.11;84.71387;949.4341;;;;
2024/02/01 04:48:28;;;;;;;5.2;3.2;;;;;;;2.1;84.62207;949.4961;;;;
2024/02/01 04:50:53;;;;;;;5.7;3.9;;;;;;;2.05;84.83496;949.473;;;;
2024/02/01 04:53:18;;;;;;;6.3;3.3;;;;;;;2.08;85.17676;949.4302;;;;
2024/02/01 04:55:43;;;;;;;6.2;3.3;;;;;;;2.13;85.05273;949.4794;;;;
2024/02/01 04:58:08;;;;;;;4.9;3;;;;;;;2.1;85.07031;949.4222;;;;
2024/02/01 05:00:34;;;;;;;6.2;3;;;;;;;2.18;84.96289;949.4383;;;;
2024/02/01 05:02:59;;;;;;;5.6;3;;;;;;;2.12;85.16504;949.3889;;;;
2024/02/01 05:05:24;;;;;;;6.4;2.5;;;;;;;2.13;85.24316;949.3348;;;;
2024/02/01 05:07:49;;;;;;;5.2;4;;;;;;;2.23;84.90527;949.2631;;;;
2024/02/01 05:10:14;;;;;;;6.7;4.1;;;;;;;2.17;85.36426;949.2743;;;;
2024/02/01 05:12:39;;;;;;;7.8;4.5;;;;;;;2.32;84.8125;949.3253;;;;
2024/02/01 05:15:04;;;;;;;7.2;3.2;;;;;;;2.21;85.15918;949.2927;;;;
2024/02/01 05:17:29;;;;;;;4;2.5;;;;;;;2.21;85.28223;949.3436;;;;
2024/02/01 05:19:58;;;;;;;4.8;2.5;;;;;;;2.11;85.3291;949.2308;;;;
2024/02/01 05:22:20;;;;;;;4.9;2.9;;;;;;;2.11;85.38477;949.2292;;;;
2024/02/01 05:24:45;;;;;;;5.6;3.3;;;;;;;2.19;85.86035;949.0894;;;;
2024/02/01 05:27:10;;;;;;;6.5;3.1;;;;;;;2.17;85.93555;949.1595;;;;
2024/02/01 05:29:35;;;;;;;8.8;3.8;;;;;;;2.22;85.88867;949.0661;;;;
2024/02/01 05:32:02;;;;;;;12.5;6.4;;;;;;;2.21;86.22266;949.0011;;;;
2024/02/01 05:34:26;;;;;;;13.6;5.5;;;;;;;2.2;86.56836;949.0718;;;;
2024/02/01 05:36:51;;;;;;;7.7;4.6;;;;;;;2.23;86.39453;949.044;;;;
2024/02/01 05:39:26;;;;;;;9.8;4.3;;;;;;;2.2;86.44629;949.0051;;;;
2024/02/01 05:41:41;;;;;;;10.2;5.4;;;;;;;2.29;86.37402;948.9903;;;;
2024/02/01 05:44:10;;;;;;;10.7;5.5;;;;;;;2.28;86.52832;948.9891;;;;
2024/02/01 05:46:32;;;;;;;11.8;6.7;;;;;;;2.28;86.54004;948.8857;;;;
2024/02/01 05:48:57;;;;;;;10.9;7.2;;;;;;;2.33;86.21484;948.9486;;;;
2024/02/01 05:51:22;;;;;;;9.2;4.9;;;;;;;2.34;86.0918;948.8184;;;;
2024/02/01 05:53:47;;;;;;;6.7;4.1;;;;;;;2.36;86.1084;948.973;;;;
2024/02/01 05:56:12;;;;;;;7;4.1;;;;;;;2.47;85.62598;948.9558;;;;
2024/02/01 05:58:37;;;;;;;7.3;3.9;;;;;;;2.36;86.1084;948.8844;;;;
2024/02/01 06:01:02;;;;;;;8.4;3.8;;;;;;;2.36;86.4541;948.8872;;;;
2024/02/01 06:03:28;;;;;;;5.7;4;;;;;;;2.56;85.8457;948.7839;;;;
2024/02/01 06:05:53;;;;;;;7;4.4;;;;;;;2.48;85.80859;948.5275;;;;
2024/02/01 06:08:18;;;;;;;7.2;3.8;;;;;;;2.49;86.07813;948.4988;;;;
2024/02/01 06:10:43;;;;;;;6.5;3.6;;;;;;;2.47;86.54492;948.4559;;;;
2024/02/01 06:13:08;;;;;;;6.8;5.2;;;;;;;2.7;85.98535;948.4422;;;;
2024/02/01 06:15:33;;;;;;;5.8;4.1;;;;;;;2.52;86.36523;948.3638;;;;
2024/02/01 06:17:58;;;;;;;6.3;4;;;;;;;2.57;86.31836;948.2706;;;;
2024/02/01 06:20:24;;;;;;;7.3;3.8;;;;;;;2.61;86.0459;948.1792;;;;
2024/02/01 06:22:50;;;;;;;8.6;4.1;;;;;;;2.71;85.94434;948.0979;;;;
2024/02/01 06:25:14;;;;;;;6.1;3.3;;;;;;;2.61;86.2832;948.0858;;;;
2024/02/01 06:27:39;;;;;;;6.8;3.6;;;;;;;2.79;85.95898;947.9753;;;;
2024/02/01 06:30:04;;;;;;;6;4;;;;;;;2.82;85.55078;947.9618;;;;
2024/02/01 06:32:29;;;;;;;6.8;3.9;;;;;;;2.8;85.84863;947.9995;;;;
2024/02/01 06:34:58;;;;;;;10.8;5.3;;;;;;;2.74;85.83789;947.9816;;;;
2024/02/01 06:37:21;;;;;;;11.5;5.3;;;;;;;2.75;86.23145;947.9718;;;;
2024/02/01 06:40:10;;;;;;;7.9;4;;;;;;;2.88;85.6084;947.8313;;;;
2024/02/01 06:42:23;;;;;;;8.9;4.7;;;;;;;2.89;85.91309;947.9294;;;;
2024/02/01 06:44:43;;;;;;;10.5;5.1;;;;;;;2.97;85.16699;947.9738;;;;
2024/02/01 06:47:11;;;;;;;8.4;4.7;;;;;;;3;85.47363;947.8734;;;;
2024/02/01 06:49:39;;;;;;;7;4.1;;;;;;;3.06;85.54199;947.8811;;;;
2024/02/01 06:51:53;;;;;;;8.8;5.2;;;;;;;3.02;85.58008;947.8059;;;;
2024/02/01 06:54:38;;;;;;;12.6;6.3;;;;;;;3.02;85.37793;947.8616;;;;
2024/02/01 06:56:48;;;;;;;11.9;6.1;;;;;;;3.01;85.66602;947.8979;;;;
2024/02/01 06:59:21;;;;;;;10.2;6.2;;;;;;;3;85.48438;947.8641;;;;
2024/02/01 07:01:51;;;;;;;9;5.7;;;;;;;2.97;85.64746;947.8499;;;;
2024/02/01 07:04:15;;;;;;;11.6;4.9;;;;;;;3.07;85.47656;947.9225;;;;
2024/02/01 07:06:35;;;;;;;7;4.7;;;;;;;3.05;85.34961;947.9089;;;;
2024/02/01 07:08:52;;;;;;;6.6;4.3;;;;;;;3.05;85.38379;947.9347;;;;
2024/02/01 07:11:25;;;;;;;10.5;4.9;;;;;;;3.09;85.38184;947.9724;;;;
2024/02/01 07:13:47;;;;;;;8.8;5.6;;;;;;;3.06;85.49805;948.007;;;;
2024/02/01 07:16:13;;;;;;;11.2;5.1;;;;;;;3.04;85.86621;948.0014;;;;
2024/02/01 07:18:30;;;;;;;9.4;5.1;;;;;;;3.12;85.68945;948.2274;;;;
2024/02/01 07:20:56;;;;;;;7;5.2;;;;;;;3.1;85.58301;948.2081;;;;
2024/02/01 07:23:48;;;;;;;8.9;5.7;;;;;;;3.33;85.00195;948.2614;;;;
2024/02/01 07:25:49;;;;;;;8.1;5;;;;;;;3.15;85.53809;947.9841;;;;
2024/02/01 07:59:38;;;;;;;8.2;4.6;;;;;;;3.56;84.59766;947.7633;;;;
2024/02/01 08:02:23;;;;;;;7.6;5;;;;;;;3.6;84.99023;947.7089;;;;
2024/02/01 08:07:44;;;;;;;8.7;5.1;;;;;;;3.83;84.17969;947.7506;;;;
2024/02/01 08:09:15;;;;;;;12.3;6.8;;;;;;;3.79;83.78027;947.7378;;;;
2024/02/01 08:11:41;;;;;;;9.1;6.2;;;;;;;3.78;84.56348;947.8766;;;;
2024/02/01 08:14:07;;;;;;;12.6;6.7;;;;;;;3.89;83.37109;947.8161;;;;
2024/02/01 08:16:29;;;;;;;11.1;5.7;;;;;;;3.79;84.24121;947.7819;;;;
2024/02/01 08:18:54;;;;;;;12.7;6.2;;;;;;;3.94;83.55957;947.9824;;;;
2024/02/01 08:21:20;;;;;;;10.9;5.7;;;;;;;;;;;;;
2024/02/01 08:23:45;;;;;;;7.9;5.1;;;;;;;;;;;;;
2024/02/01 08:26:11;;;;;;;9.5;5.2;;;;;;;;;;;;;
2024/02/01 08:28:35;;;;;;;10.9;6.3;;;;;;;;;;;;;
2024/02/01 08:31:02;;;;;;;12.1;6.9;;;;;;;;;;;;;
2024/02/01 08:33:26;;;;;;;13.2;7.3;;;;;;;;;;;;;
2024/02/01 08:35:50;;;;;;;15.7;8.1;;;;;;;;;;;;;
2024/02/01 08:38:15;;;;;;;14.7;8.2;;;;;;;;;;;;;
2024/02/01 08:40:42;;;;;;;14;7.6;;;;;;;;;;;;;
2024/02/01 08:43:06;;;;;;;15.6;7.9;;;;;;;;;;;;;
2024/02/01 08:45:31;;;;;;;17.1;8.3;;;;;;;;;;;;;
2024/02/01 08:48:00;;;;;;;13.6;9;;;;;;;;;;;;;
2024/02/01 08:50:22;;;;;;;14.1;8.1;;;;;;;;;;;;;
2024/02/01 08:52:47;;;;;;;14.4;8.7;;;;;;;;;;;;;
2024/02/01 08:55:13;;;;;;;14;8.8;;;;;;;;;;;;;
2024/02/01 08:57:36;;;;;;;14.4;8.3;;;;;;;;;;;;;
2024/02/01 09:00:01;;;;;;;35.2;20.8;;;;;;;;;;;;;
2024/02/01 09:02:26;;;;;;;37.6;22.6;;;;;;;;;;;;;
2024/02/01 09:04:53;;;;;;;21.2;13.7;;;;;;;;;;;;;
2024/02/01 09:07:19;;;;;;;19.2;11.7;;;;;;;;;;;;;
2024/02/01 09:09:43;;;;;;;17.9;10.7;;;;;;;;;;;;;
2024/02/01 09:12:07;;;;;;;16.9;9.4;;;;;;;;;;;;;
2024/02/01 09:14:33;;;;;;;14.8;9.3;;;;;;;;;;;;;
2024/02/01 09:16:57;;;;;;;18.5;11.6;;;;;;;;;;;;;
2024/02/01 09:19:22;;;;;;;24.6;14;;;;;;;;;;;;;
2024/02/01 09:21:47;;;;;;;17.6;11.3;;;;;;;;;;;;;
2024/02/01 09:24:12;;;;;;;18.1;10.9;;;;;;;;;;;;;
2024/02/01 09:26:40;;;;;;;15.7;9.9;;;;;;;;;;;;;
2024/02/01 09:29:11;;;;;;;15.6;8.4;;;;;;;;;;;;;
2024/02/01 09:31:28;;;;;;;14.5;8.4;;;;;;;;;;;;;
2024/02/01 09:33:55;;;;;;;14.7;8.6;;;;;;;;;;;;;
2024/02/01 09:36:18;;;;;;;12.4;8;;;;;;;;;;;;;
2024/02/01 09:38:43;;;;;;;13.7;7.7;;;;;;;;;;;;;
2024/02/01 09:41:15;;;;;;;14;7.7;;;;;;;;;;;;;
2024/02/01 09:43:39;;;;;;;15.9;7.7;;;;;;;;;;;;;
2024/02/01 09:46:02;;;;;;;12.9;7.7;;;;;;;;;;;;;
2024/02/01 09:48:24;;;;;;;11.7;6.8;;;;;;;;;;;;;
2024/02/01 09:50:50;;;;;;;13.1;7;;;;;;;;;;;;;
2024/02/01 09:53:14;;;;;;;11.8;6.9;;;;;;;;;;;;;
2024/02/01 09:55:39;;;;;;;13.6;8.5;;;;;;;;;;;;;
2024/02/01 09:58:04;;;;;;;16.3;10;;;;;;;;;;;;;
2024/02/01 10:00:33;;;;;;;18.1;12.3;;;;;;;;;;;;;
2024/02/01 10:02:55;;;;;;;15.9;11.3;;;;;;;;;;;;;
2024/02/01 10:05:20;;;;;;;17;10.3;;;;;;;;;;;;;
2024/02/01 10:07:45;;;;;;;16.5;9;;;;;;;;;;;;;
2024/02/01 10:10:13;;;;;;;16.7;8.6;;;;;;;;;;;;;
2024/02/01 10:12:36;;;;;;;15.8;8.3;;;;;;;;;;;;;
2024/02/01 10:15:08;;;;;;;14.4;7.7;;;;;;;;;;;;;
2024/02/01 10:17:25;;;;;;;12.1;8.1;;;;;;;;;;;;;
2024/02/01 10:19:52;;;;;;;15;7.5;;;;;;;;;;;;;
2024/02/01 10:22:16;;;;;;;11.6;6.7;;;;;;;;;;;;;
2024/02/01 10:24:48;;;;;;;13.3;6;;;;;;;;;;;;;
2024/02/01 10:27:07;;;;;;;10;6.2;;;;;;;;;;;;;
2024/02/01 10:29:31;;;;;;;9.6;5.6;;;;;;;;;;;;;
2024/02/01 10:31:56;;;;;;;9.2;5.4;;;;;;;;;;;;;
2024/02/01 10:34:22;;;;;;;9.3;5.7;;;;;;;;;;;;;
2024/02/01 10:36:47;;;;;;;11.9;8;;;;;;;;;;;;;
2024/02/01 10:39:11;;;;;;;16.7;8.2;;;;;;;;;;;;;
2024/02/01 10:41:37;;;;;;;14.1;7.5;;;;;;;;;;;;;
2024/02/01 10:44:02;;;;;;;12.4;7.7;;;;;;;;;;;;;
2024/02/01 10:46:27;;;;;;;9.4;7;;;;;;;;;;;;;
2024/02/01 10:48:52;;;;;;;11.5;7.3;;;;;;;;;;;;;
2024/02/01 10:51:17;;;;;;;12.9;7.5;;;;;;;;;;;;;
2024/02/01 10:53:43;;;;;;;14.3;8.1;;;;;;;;;;;;;
2024/02/01 10:56:13;;;;;;;13.7;7.7;;;;;;;;;;;;;
2024/02/01 10:58:32;;;;;;;16.1;8.3;;;;;;;;;;;;;
2024/02/01 11:00:57;;;;;;;15.5;8.6;;;;;;;;;;;;;
2024/02/01 11:03:23;;;;;;;17.5;9.1;;;;;;;;;;;;;
2024/02/01 11:05:48;;;;;;;16.5;9.7;;;;;;;;;;;;;
2024/02/01 11:08:13;;;;;;;18.6;10.2;;;;;;;;;;;;;
2024/02/01 11:10:38;;;;;;;16.2;9.9;;;;;;;;;;;;;
2024/02/01 11:13:03;;;;;;;14.8;7.9;;;;;;;;;;;;;
2024/02/01 11:15:28;;;;;;;12.7;8.4;;;;;;;;;;;;;
2024/02/01 11:17:59;;;;;;;15.3;9.3;;;;;;;;;;;;;
2024/02/01 11:20:18;;;;;;;15.8;9.5;;;;;;;;;;;;;
2024/02/01 11:22:44;;;;;;;16.1;10.1;;;;;;;;;;;;;
2024/02/01 11:25:09;;;;;;;13.1;9.2;;;;;;;;;;;;;
2024/02/01 11:27:36;;;;;;;16.4;8.6;;;;;;;;;;;;;
2024/02/01 11:30:19;;;;;;;13.1;7.9;;;;;;;;;;;;;
2024/02/01 11:32:24;;;;;;;11.2;8.1;;;;;;;;;;;;;
2024/02/01 11:34:52;;;;;;;11;6.7;;;;;;;;;;;;;
2024/02/01 11:37:14;;;;;;;11.6;6.2;;;;;;;;;;;;;
2024/02/01 11:39:39;;;;;;;11.3;5.7;;;;;;;;;;;;;
2024/02/01 11:42:04;;;;;;;10.2;6.1;;;;;;;;;;;;;
2024/02/01 11:44:29;;;;;;;12.9;7.8;;;;;;;;;;;;;
2024/02/01 11:46:55;;;;;;;10.2;6.3;;;;;;;;;;;;;
2024/02/01 11:49:20;;;;;;;10.2;6.3;;;;;;;;;;;;;
2024/02/01 11:51:45;;;;;;;10.9;6.4;;;;;;;;;;;;;
2024/02/01 11:54:10;;;;;;;11.8;7;;;;;;;;;;;;;
2024/02/01 11:56:35;;;;;;;12.4;7.1;;;;;;;;;;;;;
2024/02/01 11:59:00;;;;;;;15.4;7.7;;;;;;;;;;;;;
2024/02/01 12:01:25;;;;;;;11.2;6.6;;;;;;;;;;;;;
2024/02/01 12:03:51;;;;;;;9.7;5.9;;;;;;;;;;;;;
2024/02/01 12:06:17;;;;;;;11.4;6.3;;;;;;;;;;;;;
2024/02/01 12:08:41;;;;;;;15.3;8.1;;;;;;;;;;;;;
2024/02/01 12:11:07;;;;;;;12.4;7;;;;;;;;;;;;;
2024/02/01 12:13:31;;;;;;;11.2;6.3;;;;;;;;;;;;;
2024/02/01 12:15:58;;;;;;;10.6;5.7;;;;;;;;;;;;;
2024/02/01 12:18:21;;;;;;;9.6;6;;;;;;;;;;;;;
2024/02/01 12:20:47;;;;;;;7.5;5.3;;;;;;;;;;;;;
2024/02/01 12:23:11;;;;;;;10.9;6.6;;;;;;;;;;;;;
2024/02/01 12:25:36;;;;;;;9.5;6;;;;;;;;;;;;;
2024/02/01 12:28:01;;;;;;;10;6.6;;;;;;;;;;;;;
2024/02/01 12:30:27;;;;;;;9.5;6.2;;;;;;;;;;;;;
2024/02/01 12:32:52;;;;;;;12.1;6.9;;;;;;;;;;;;;
2024/02/01 12:35:18;;;;;;;11.8;6.5;;;;;;;;;;;;;
2024/02/01 12:37:42;;;;;;;11.7;7;;;;;;;;;;;;;
2024/02/01 12:40:07;;;;;;;12.3;7.5;;;;;;;;;;;;;
2024/02/01 12:42:33;;;;;;;11.6;7.2;;;;;;;;;;;;;
2024/02/01 12:44:57;;;;;;;10.5;6.9;;;;;;;;;;;;;
2024/02/01 12:47:22;;;;;;;12.9;7.6;;;;;;;;;;;;;
2024/02/01 12:49:47;;;;;;;11.5;7.2;;;;;;;;;;;;;
2024/02/01 12:52:12;;;;;;;8.2;5.4;;;;;;;;;;;;;
2024/02/01 12:54:39;;;;;;;9.6;4.8;;;;;;;;;;;;;
2024/02/01 12:57:02;;;;;;;8;4.5;;;;;;;;;;;;;
2024/02/01 12:59:27;;;;;;;8.2;4.5;;;;;;;;;;;;;
2024/02/01 13:01:53;;;;;;;9;4.6;;;;;;;;;;;;;
2024/02/01 13:04:18;;;;;;;7;4.7;;;;;;;;;;;;;
2024/02/01 13:06:43;;;;;;;6.9;4.7;;;;;;;;;;;;;
2024/02/01 13:09:09;;;;;;;8.3;5.6;;;;;;;;;;;;;
2024/02/01 13:11:33;;;;;;;10.2;6;;;;;;;;;;;;;
2024/02/01 13:13:58;;;;;;;9.1;6.8;;;;;;;;;;;;;
2024/02/01 13:16:23;;;;;;;8.8;5.7;;;;;;;;;;;;;
2024/02/01 13:18:48;;;;;;;6.7;4.3;;;;;;;;;;;;;
2024/02/01 13:21:13;;;;;;;6.6;3.6;;;;;;;;;;;;;
2024/02/01 13:23:39;;;;;;;6.3;3.6;;;;;;;;;;;;;
2024/02/01 13:26:04;;;;;;;6;4.3;;;;;;;;;;;;;
2024/02/01 13:28:29;;;;;;;6.8;5.1;;;;;;;;;;;;;
2024/02/01 13:30:57;;;;;;;5.5;3.9;;;;;;;;;;;;;
2024/02/01 13:33:19;;;;;;;4.9;3.4;;;;;;;;;;;;;
2024/02/01 13:35:44;;;;;;;15.1;9.5;;;;;;;;;;;;;
2024/02/01 13:38:11;;;;;;;11.4;8;;;;;;;;;;;;;
2024/02/01 13:40:34;;;;;;;14.9;10.4;;;;;;;;;;;;;
2024/02/01 13:42:59;;;;;;;9.7;6.6;;;;;;;;;;;;;
2024/02/01 13:45:24;;;;;;;5.4;4;;;;;;;;;;;;;
2024/02/01 13:47:53;;;;;;;4.2;3.4;;;;;;;;;;;;;
2024/02/01 13:50:14;;;;;;;5.2;3.1;;;;;;;;;;;;;
2024/02/01 13:52:41;;;;;;;3.5;3;;;;;;;;;;;;;
2024/02/01 13:55:10;;;;;;;6.4;3;;;;;;;;;;;;;
2024/02/01 13:57:31;;;;;;;4.6;2.1;;;;;;;;;;;;;
2024/02/01 13:59:56;;;;;;;2.1;1.8;;;;;;;;;;;;;
2024/02/01 14:02:20;;;;;;;2.4;2;;;;;;;;;;;;;
2024/02/01 14:04:46;;;;;;;2.1;1.4;;;;;;;;;;;;;
2024/02/01 14:07:12;;;;;;;1.1;1;;;;;;;;;;;;;
2024/02/01 14:09:37;;;;;;;1.4;1.3;;;;;;;;;;;;;
2024/02/01 14:12:02;;;;;;;2.5;1.5;;;;;;;;;;;;;
2024/02/01 14:14:27;;;;;;;3.1;2.1;;;;;;;;;;;;;
2024/02/01 14:16:52;;;;;;;5.3;4.5;;;;;;;;;;;;;
2024/02/01 14:19:17;;;;;;;6.6;4.3;;;;;;;;;;;;;
2024/02/01 14:21:42;;;;;;;13.1;10.4;;;;;;;;;;;;;
2024/02/01 14:24:07;;;;;;;4.1;3.5;;;;;;;;;;;;;
2024/02/01 14:26:32;;;;;;;2.2;1.9;;;;;;;;;;;;;
2024/02/01 14:28:57;;;;;;;2.9;2.1;;;;;;;;;;;;;
2024/02/01 14:31:24;;;;;;;8.2;7.3;;;;;;;;;;;;;
2024/02/01 14:33:47;;;;;;;8.7;6.1;;;;;;;;;;;;;
2024/02/01 14:36:12;;;;;;;6.7;5.2;;;;;;;;;;;;;
2024/02/01 14:38:37;;;;;;;3.4;2.3;;;;;;;;;;;;;
2024/02/01 14:41:03;;;;;;;8.3;5.4;;;;;;;;;;;;;
2024/02/01 14:43:27;;;;;;;5.9;4.3;;;;;;;;;;;;;
2024/02/01 14:45:53;;;;;;;4.3;3.2;;;;;;;;;;;;;
2024/02/01 14:48:18;;;;;;;9;6.1;;;;;;;;;;;;;
2024/02/01 14:50:43;;;;;;;2.7;1.9;;;;;;;;;;;;;
2024/02/01 14:53:08;;;;;;;2.8;2;;;;;;;;;;;;;
2024/02/01 14:55:33;;;;;;;4.2;3.6;;;;;;;;;;;;;
2024/02/01 14:57:58;;;;;;;5.5;4.3;;;;;;;;;;;;;
2024/02/01 15:00:27;;;;;;;3.7;2.5;;;;;;;;;;;;;
2024/02/01 15:02:48;;;;;;;2.8;2.6;;;;;;;;;;;;;
2024/02/01 15:05:14;;;;;;;2.4;2.1;;;;;;;;;;;;;
2024/02/01 15:07:38;;;;;;;3.3;2.3;;;;;;;;;;;;;
2024/02/01 15:10:04;;;;;;;3.2;2.9;;;;;;;;;;;;;
2024/02/01 15:12:28;;;;;;;4.1;2.4;;;;;;;;;;;;;
2024/02/01 15:14:54;;;;;;;3.1;2.8;;;;;;;;;;;;;
2024/02/01 15:17:19;;;;;;;1.8;1.5;;;;;;;;;;;;;
2024/02/01 15:19:44;;;;;;;2.8;1.8;;;;;;;;;;;;;
2024/02/01 15:22:09;;;;;;;3.3;2.1;;;;;;;;;;;;;
2024/02/01 15:24:34;;;;;;;2.9;2.4;;;;;;;;;;;;;
2024/02/01 15:27:02;;;;;;;3.4;3.1;;;;;;;;;;;;;
2024/02/01 15:29:25;;;;;;;3.9;3.4;;;;;;;;;;;;;
2024/02/01 15:31:51;;;;;;;3.8;3.4;;;;;;;;;;;;;
2024/02/01 15:34:16;;;;;;;5.8;4.6;;;;;;;;;;;;;
2024/02/01 15:36:40;;;;;;;6.3;4.7;;;;;;;;;;;;;
2024/02/01 15:39:07;;;;;;;5.8;5.2;;;;;;;;;;;;;
2024/02/01 15:41:30;;;;;;;5.5;4.9;;;;;;;;;;;;;
2024/02/01 15:43:55;;;;;;;6.1;5.1;;;;;;;;;;;;;
2024/02/01 15:46:20;;;;;;;8;6.1;;;;;;;;;;;;;
2024/02/01 15:48:46;;;;;;;9.4;6.5;;;;;;;;;;;;;
2024/02/01 15:51:10;;;;;;;4.5;4.1;;;;;;;;;;;;;
2024/02/01 15:53:36;;;;;;;3.9;3.5;;;;;;;;;;;;;
2024/02/01 15:56:01;;;;;;;7.6;4.9;;;;;;;;;;;;;
2024/02/01 15:58:26;;;;;;;5.9;5.3;;;;;;;;;;;;;
2024/02/01 16:00:52;;;;;;;5.7;4.4;;;;;;;;;;;;;
2024/02/01 16:03:16;;;;;;;5.9;4.5;;;;;;;;;;;;;
2024/02/01 16:05:42;;;;;;;6.1;4.6;;;;;;;;;;;;;
2024/02/01 16:08:07;;;;;;;6.4;5.2;;;;;;;;;;;;;
2024/02/01 16:10:32;;;;;;;6.1;5.4;;;;;;;;;;;;;
2024/02/01 16:12:58;;;;;;;6.8;5;;;;;;;;;;;;;
2024/02/01 16:15:22;;;;;;;6.2;5;;;;;;;;;;;;;
2024/02/01 16:17:47;;;;;;;8.7;6.1;;;;;;;;;;;;;
2024/02/01 16:20:12;;;;;;;8.8;5.7;;;;;;;;;;;;;
2024/02/01 16:22:37;;;;;;;9.6;6.2;;;;;;;;;;;;;
2024/02/01 16:25:02;;;;;;;7.6;5.6;;;;;;;;;;;;;
2024/02/01 16:27:28;;;;;;;8;6.1;;;;;;;;;;;;;
2024/02/01 16:29:53;;;;;;;13;8.9;;;;;;;;;;;;;
2024/02/01 16:32:18;;;;;;;18.2;11;;;;;;;;;;;;;
2024/02/01 16:34:45;;;;;;;27.3;15.9;;;;;;;;;;;;;
2024/02/01 16:37:08;;;;;;;11.3;8.2;;;;;;;;;;;;;
2024/02/01 16:39:33;;;;;;;10.3;7.4;;;;;;;;;;;;;
2024/02/01 16:41:58;;;;;;;8.1;6.3;;;;;;;;;;;;;
2024/02/01 16:44:23;;;;;;;10.1;6.6;;;;;;;;;;;;;
2024/02/01 16:46:48;;;;;;;10.5;7.6;;;;;;;;;;;;;
2024/02/01 16:49:13;;;;;;;19.2;11.8;;;;;;;;;;;;;
2024/02/01 16:51:38;;;;;;;16.6;11.5;;;;;;;;;;;;;
2024/02/01 16:54:05;;;;;;;16.8;12.3;;;;;;;;;;;;;
2024/02/01 16:56:30;;;;;;;14.8;10.3;;;;;;;;;;;;;
2024/02/01 16:58:54;;;;;;;14.1;10.3;;;;;;;;;;;;;
2024/02/01 17:01:19;;;;;;;16;10.9;;;;;;;;;;;;;
2024/02/01 17:03:44;;;;;;;18.4;14.6;;;;;;;;;;;;;
2024/02/01 17:06:09;;;;;;;15.9;11.9;;;;;;;;;;;;;
2024/02/01 17:08:34;;;;;;;11.5;8.9;;;;;;;;;;;;;
2024/02/01 17:10:59;;;;;;;11.4;8.5;;;;;;;;;;;;;
2024/02/01 17:13:24;;;;;;;10.8;7.5;;;;;;;;;;;;;
2024/02/01 17:15:49;;;;;;;9.3;7.4;;;;;;;;;;;;;
2024/02/01 17:18:16;;;;;;;9.3;7.1;;;;;;;;;;;;;
2024/02/01 17:20:41;;;;;;;35.2;21.3;;;;;;;;;;;;;
2024/02/01 17:23:05;;;;;;;23.6;16;;;;;;;;;;;;;
2024/02/01 17:25:30;;;;;;;21.7;16.5;;;;;;;;;;;;;
2024/02/01 17:27:55;;;;;;;11.4;9.4;;;;;;;;;;;;;
2024/02/01 17:30:22;;;;;;;10.5;8.2;;;;;;;;;;;;;
2024/02/01 17:32:45;;;;;;;7.3;6.1;;;;;;;;;;;;;
2024/02/01 17:35:10;;;;;;;7.4;6;;;;;;;;;;;;;
2024/02/01 17:37:37;;;;;;;9.6;7.1;;;;;;;;;;;;;
2024/02/01 17:40:00;;;;;;;7.8;5.9;;;;;;;;;;;;;
2024/02/01 17:42:25;;;;;;;6.1;5.4;;;;;;;;;;;;;
2024/02/01 17:44:50;;;;;;;9.7;7;;;;;;;;;;;;;
2024/02/01 17:47:15;;;;;;;7.7;4.6;;;;;;;;;;;;;
2024/02/01 17:49:41;;;;;;;11.7;8.9;;;;;;;;;;;;;
2024/02/01 17:52:07;;;;;;;12.1;8.4;;;;;;;;;;;;;
2024/02/01 17:54:31;;;;;;;15.3;10.1;;;;;;;;;;;;;
2024/02/01 17:56:56;;;;;;;11.9;7.9;;;;;;;;;;;;;
2024/02/01 17:59:21;;;;;;;12.6;8.4;;;;;;;;;;;;;
2024/02/01 18:01:46;;;;;;;10.6;7.8;;;;;;;;;;;;;
2024/02/01 18:04:11;;;;;;;16.1;10.4;;;;;;;;;;;;;
2024/02/01 18:06:37;;;;;;;21.2;12.2;;;;;;;;;;;;;
2024/02/01 18:09:02;;;;;;;16.1;11.8;;;;;;;;;;;;;
2024/02/01 18:11:27;;;;;;;18.4;13;;;;;;;;;;;;;
2024/02/01 18:13:52;;;;;;;18.1;12.5;;;;;;;;;;;;;
2024/02/01 18:16:17;;;;;;;24;13.8;;;;;;;;;;;;;
2024/02/01 18:18:42;;;;;;;18.9;12.5;;;;;;;;;;;;;
2024/02/01 18:21:08;;;;;;;20.3;13.6;;;;;;;;;;;;;
2024/02/01 18:23:32;;;;;;;26.1;18.6;;;;;;;;;;;;;
2024/02/01 18:25:57;;;;;;;63.3;52.4;;;;;;;;;;;;;
2024/02/01 18:28:24;;;;;;;53.1;43.2;;;;;;;;;;;;;
2024/02/01 18:30:49;;;;;;;33.1;23.8;;;;;;;;;;;;;
2024/02/01 18:33:13;;;;;;;32.8;25.8;;;;;;;;;;;;;
2024/02/01 18:35:38;;;;;;;36.3;26.7;;;;;;;;;;;;;
2024/02/01 18:38:03;;;;;;;27.9;20.5;;;;;;;;;;;;;
2024/02/01 18:40:28;;;;;;;35.6;21.4;;;;;;;;;;;;;
2024/02/01 18:42:54;;;;;;;44.2;24.5;;;;;;;;;;;;;